Time;durP1;ratioP1;P1;durP2;ratioP2;P2;SDS_P1;SDS_P2;PMS_P1;PMS_P2;Temp;Humidity;BMP_temperature;BMP_pressure;BME280_temperature;BME280_humidity;BME280_pressure;Samples;Min_cycle;Max_cycle;Signal;HPM_P1;HPM_P2
2021/01/29 00:01:58;;;;;;;2.97;2.67;;;6.50;99.90;;;;;;5030100;28;20489;-69
2021/01/29 00:04:26;;;;;;;3.67;2.80;;;6.50;99.90;;;;;;5028180;28;20528;-70
2021/01/29 00:06:56;;;;;;;2.80;2.20;;;6.50;99.90;;;;;;5032831;28;20439;-75
2021/01/29 00:09:23;;;;;;;3.50;3.00;;;6.50;99.90;;;;;;5032711;28;20443;-69
2021/01/29 00:11:51;;;;;;;4.83;2.97;;;6.50;99.90;;;;;;5032370;28;20538;-70
2021/01/29 00:14:18;;;;;;;5.27;3.43;;;6.50;99.90;;;;;;5032565;28;20946;-72
2021/01/29 00:16:46;;;;;;;5.60;3.40;;;6.50;99.90;;;;;;5030447;28;20477;-69
2021/01/29 00:19:15;;;;;;;5.63;2.87;;;6.40;99.90;;;;;;5031655;28;20461;-70
2021/01/29 00:21:42;;;;;;;3.50;2.70;;;6.40;99.90;;;;;;5032505;28;20448;-71
2021/01/29 00:24:10;;;;;;;2.90;2.57;;;6.30;99.90;;;;;;5033256;28;20445;-69
2021/01/29 00:26:38;;;;;;;4.10;2.93;;;6.30;99.90;;;;;;5033082;28;20841;-70
2021/01/29 00:29:06;;;;;;;10.03;6.07;;;6.20;99.90;;;;;;5033108;28;20437;-70
2021/01/29 00:31:33;;;;;;;4.97;3.57;;;6.10;99.90;;;;;;5030687;28;20961;-69
2021/01/29 00:34:01;;;;;;;6.03;3.40;;;6.10;99.90;;;;;;5033194;28;20436;-69
2021/01/29 00:36:29;;;;;;;3.87;3.00;;;6.00;99.90;;;;;;5032916;28;20497;-69
2021/01/29 00:38:56;;;;;;;3.30;2.63;;;6.00;99.90;;;;;;5033318;28;20433;-69
2021/01/29 00:41:24;;;;;;;3.27;2.83;;;5.90;99.90;;;;;;5033032;28;20760;-75
2021/01/29 00:43:52;;;;;;;3.13;2.67;;;5.90;99.90;;;;;;5031621;28;20447;-69
2021/01/29 00:46:19;;;;;;;3.40;3.10;;;5.90;99.90;;;;;;5031819;28;20950;-69
2021/01/29 00:48:48;;;;;;;5.60;3.60;;;5.80;99.90;;;;;;5032626;28;20896;-69
2021/01/29 00:51:16;;;;;;;3.53;2.93;;;5.80;99.90;;;;;;5033204;28;20535;-69
2021/01/29 00:53:44;;;;;;;3.17;2.83;;;5.80;99.90;;;;;;5032603;28;20404;-70
2021/01/29 00:56:23;;;;;;;5.27;3.03;;;5.80;99.90;;;;;;5031307;28;20411;-69
2021/01/29 00:59:13;;;;;;;4.30;3.17;;;5.80;99.90;;;;;;5033008;28;20482;-70
2021/01/29 01:01:56;;;;;;;3.87;2.97;;;5.70;99.90;;;;;;5031342;28;20522;-69
2021/01/29 01:04:24;;;;;;;4.57;2.93;;;5.80;99.90;;;;;;5030915;28;20415;-70
2021/01/29 01:06:57;;;;;;;4.17;2.87;;;5.80;99.90;;;;;;5031119;28;20432;-70
2021/01/29 01:09:51;;;;;;;5.50;3.43;;;5.70;99.90;;;;;;5030144;28;20444;-69
2021/01/29 01:12:39;;;;;;;3.00;2.50;;;5.60;99.90;;;;;;5032480;28;20944;-69
2021/01/29 01:15:12;;;;;;;4.00;2.40;;;5.60;99.90;;;;;;5030959;28;20461;-75
2021/01/29 01:17:46;;;;;;;4.03;2.90;;;5.50;99.90;;;;;;5032318;28;20483;-74
2021/01/29 01:20:45;;;;;;;3.23;2.93;;;5.50;99.90;;;;;;5020576;28;20793;-74
2021/01/29 01:23:13;;;;;;;2.93;2.33;;;5.40;99.90;;;;;;5030539;28;20490;-69
2021/01/29 01:25:45;;;;;;;3.23;2.20;;;5.40;99.90;;;;;;5035050;28;20422;-75
2021/01/29 01:28:44;;;;;;;3.60;2.63;;;5.30;99.90;;;;;;5036458;28;20422;-69
2021/01/29 01:31:23;;;;;;;7.13;2.40;;;5.30;99.90;;;;;;5035811;28;20472;-69
2021/01/29 01:34:11;;;;;;;3.77;2.40;;;5.30;99.90;;;;;;5035889;28;20554;-70
2021/01/29 01:37:09;;;;;;;9.23;3.27;;;5.30;99.90;;;;;;5034813;28;20436;-69
2021/01/29 01:40:13;;;;;;;23.47;3.70;;;5.30;99.90;;;;;;5036218;28;20759;-69
2021/01/29 01:42:42;;;;;;;45.77;5.70;;;5.30;99.90;;;;;;5036032;28;20795;-70
2021/01/29 01:45:49;;;;;;;18.63;4.10;;;5.40;99.90;;;;;;5036292;28;20413;-70
2021/01/29 01:48:31;;;;;;;75.97;16.40;;;5.40;99.90;;;;;;5036058;28;20463;-70
2021/01/29 01:51:22;;;;;;;39.43;6.10;;;5.40;99.90;;;;;;5034494;28;20414;-70
2021/01/29 01:53:53;;;;;;;53.23;5.40;;;5.30;99.90;;;;;;5034149;28;20441;-70
2021/01/29 01:56:37;;;;;;;26.40;3.60;;;5.20;99.90;;;;;;5034104;28;20827;-69
2021/01/29 01:59:40;;;;;;;11.13;3.20;;;5.20;99.90;;;;;;5019121;28;20787;-70
2021/01/29 02:02:29;;;;;;;4.13;2.17;;;5.10;99.90;;;;;;5034749;28;20674;-68
2021/01/29 02:05:27;;;;;;;8.63;2.40;;;5.20;99.90;;;;;;5035543;28;20518;-70
2021/01/29 02:08:15;;;;;;;3.10;2.20;;;5.20;99.90;;;;;;5035828;28;20958;-69
2021/01/29 02:11:23;;;;;;;2.27;2.07;;;5.30;99.90;;;;;;4993598;28;20580;-69
2021/01/29 02:14:23;;;;;;;2.50;1.90;;;5.50;99.90;;;;;;4969024;28;20541;-75
2021/01/29 02:17:08;;;;;;;2.20;1.97;;;5.60;99.90;;;;;;5008010;28;20435;-69
2021/01/29 02:20:45;;;;;;;3.30;2.50;;;5.60;99.90;;;;;;5034994;28;20430;-70
2021/01/29 02:24:06;;;;;;;3.63;2.20;;;5.80;99.90;;;;;;5033559;28;20442;-69
2021/01/29 02:27:05;;;;;;;2.77;2.37;;;5.80;99.90;;;;;;5034055;28;20757;-72
2021/01/29 02:30:27;;;;;;;3.53;2.63;;;5.70;99.90;;;;;;5034309;28;20407;-69
2021/01/29 02:33:58;;;;;;;3.70;2.83;;;5.80;99.90;;;;;;4957213;28;20576;-70
2021/01/29 02:37:12;;;;;;;4.67;3.33;;;5.90;99.90;;;;;;4957164;28;20475;-70
2021/01/29 02:39:58;;;;;;;3.03;2.43;;;6.10;99.90;;;;;;5016716;28;20464;-72
2021/01/29 02:42:49;;;;;;;3.77;2.83;;;6.20;99.90;;;;;;5032908;28;20472;-69
2021/01/29 02:45:44;;;;;;;3.07;2.40;;;6.20;99.90;;;;;;5033928;28;20884;-73
2021/01/29 02:48:37;;;;;;;2.90;2.30;;;6.50;99.90;;;;;;5032657;28;20478;-70
2021/01/29 02:51:34;;;;;;;2.67;1.90;;;6.70;99.90;;;;;;5003414;28;20450;-71
2021/01/29 02:54:38;;;;;;;3.07;2.10;;;6.80;99.90;;;;;;4980569;28;20476;-74
2021/01/29 02:57:42;;;;;;;5.93;2.17;;;7.00;99.90;;;;;;5033247;28;20474;-69
2021/01/29 03:00:41;;;;;;;4.83;1.90;;;7.20;99.90;;;;;;5034546;28;20625;-73
2021/01/29 03:03:22;;;;;;;3.13;1.80;;;7.30;99.90;;;;;;5048814;28;20554;-73
2021/01/29 03:06:27;;;;;;;2.00;1.67;;;7.30;99.90;;;;;;5032753;28;20485;-68
2021/01/29 03:09:00;;;;;;;2.33;2.23;;;7.30;99.90;;;;;;5033962;28;20522;-70
2021/01/29 03:11:52;;;;;;;3.90;2.23;;;7.30;99.90;;;;;;5033465;28;20911;-70
2021/01/29 03:14:43;;;;;;;2.57;2.13;;;7.30;99.90;;;;;;5031668;28;20478;-70
2021/01/29 03:17:36;;;;;;;2.27;2.03;;;7.30;99.90;;;;;;5032821;28;20605;-70
2021/01/29 03:20:27;;;;;;;3.60;2.30;;;7.40;99.90;;;;;;5033345;28;20457;-70
2021/01/29 03:23:37;;;;;;;2.80;2.00;;;7.50;99.90;;;;;;4991932;28;20444;-68
2021/01/29 03:26:27;;;;;;;3.47;2.30;;;7.50;99.90;;;;;;5032798;28;20447;-69
2021/01/29 03:29:23;;;;;;;3.63;2.57;;;7.60;99.90;;;;;;5032594;28;20431;-69
2021/01/29 03:32:21;;;;;;;2.17;2.03;;;7.60;99.90;;;;;;4995636;28;20564;-70
2021/01/29 03:35:25;;;;;;;1.90;1.80;;;7.60;99.90;;;;;;4989550;28;20946;-70
2021/01/29 03:38:18;;;;;;;2.43;2.13;;;7.60;99.90;;;;;;5033342;28;20423;-70
2021/01/29 03:41:16;;;;;;;3.10;2.40;;;7.60;99.90;;;;;;5032947;28;20443;-69
2021/01/29 03:44:08;;;;;;;3.30;2.67;;;7.60;99.90;;;;;;5032646;28;20526;-69
2021/01/29 03:47:00;;;;;;;2.80;2.37;;;7.60;99.90;;;;;;5031267;28;20537;-70
2021/01/29 03:49:58;;;;;;;3.13;2.93;;;7.60;99.90;;;;;;5033051;28;20431;-74
2021/01/29 03:52:57;;;;;;;2.97;2.50;;;7.70;99.90;;;;;;5033467;28;20434;-70
2021/01/29 03:55:45;;;;;;;2.50;2.30;;;7.70;99.90;;;;;;5033191;28;20507;-70
2021/01/29 03:58:39;;;;;;;3.83;2.37;;;7.70;99.90;;;;;;5033498;28;20435;-69
2021/01/29 04:01:37;;;;;;;2.60;2.40;;;7.90;99.90;;;;;;5032183;28;20486;-69
2021/01/29 04:04:29;;;;;;;2.70;2.50;;;7.80;99.90;;;;;;5031760;28;20518;-69
2021/01/29 04:07:44;;;;;;;3.13;2.83;;;7.80;99.90;;;;;;5032957;28;20446;-72
2021/01/29 04:10:47;;;;;;;2.50;2.30;;;7.70;99.90;;;;;;5032486;28;20498;-70
2021/01/29 04:13:47;;;;;;;3.03;2.50;;;7.90;99.90;;;;;;5031882;28;20427;-70
2021/01/29 04:16:32;;;;;;;3.23;2.43;;;7.90;99.90;;;;;;5030755;28;20494;-70
2021/01/29 04:19:02;;;;;;;5.83;2.10;;;7.90;99.90;;;;;;5032694;28;20807;-70
2021/01/29 04:21:35;;;;;;;4.47;2.03;;;7.90;99.90;;;;;;5032318;28;20427;-69
2021/01/29 04:24:08;;;;;;;2.80;2.20;;;7.90;99.90;;;;;;5032169;28;20485;-70
2021/01/29 04:26:40;;;;;;;3.10;1.83;;;7.90;99.90;;;;;;5033480;28;21037;-70
2021/01/29 04:29:12;;;;;;;3.90;1.93;;;7.90;99.90;;;;;;5031948;28;20431;-72
2021/01/29 04:31:40;;;;;;;3.40;2.30;;;8.00;99.90;;;;;;5030701;28;20474;-69
2021/01/29 04:34:12;;;;;;;3.97;2.23;;;8.10;99.90;;;;;;5031446;28;20447;-76
2021/01/29 04:36:42;;;;;;;2.80;1.97;;;8.10;99.90;;;;;;5031439;28;20977;-69
2021/01/29 04:39:14;;;;;;;3.27;2.07;;;8.00;99.90;;;;;;5032805;28;20440;-70
2021/01/29 04:42:03;;;;;;;2.10;1.90;;;8.00;99.90;;;;;;5032887;28;20442;-70
2021/01/29 04:44:48;;;;;;;2.20;1.80;;;8.00;99.90;;;;;;5031660;28;20939;-70
2021/01/29 04:47:22;;;;;;;2.43;2.03;;;8.00;99.90;;;;;;5031756;28;21024;-70
2021/01/29 04:50:13;;;;;;;6.93;2.10;;;7.90;99.90;;;;;;5032915;28;20435;-69
2021/01/29 04:53:22;;;;;;;3.43;2.30;;;8.00;99.90;;;;;;5032831;28;20427;-71
2021/01/29 04:56:17;;;;;;;2.10;1.77;;;8.00;99.90;;;;;;5031111;28;20459;-69
2021/01/29 04:59:04;;;;;;;3.87;2.10;;;8.10;99.90;;;;;;5032155;28;20441;-70
2021/01/29 05:02:21;;;;;;;1.97;1.77;;;8.00;99.90;;;;;;5031134;28;20471;-71
2021/01/29 05:05:32;;;;;;;2.90;2.00;;;8.00;99.90;;;;;;5007995;28;20459;-69
2021/01/29 05:08:54;;;;;;;2.63;2.30;;;8.00;99.90;;;;;;5031600;28;20465;-69
2021/01/29 05:11:58;;;;;;;4.33;2.00;;;8.00;99.90;;;;;;5032088;28;20431;-71
2021/01/29 05:15:17;;;;;;;3.37;1.97;;;8.00;99.90;;;;;;5032736;28;20431;-69
2021/01/29 05:18:16;;;;;;;4.07;1.97;;;8.00;99.90;;;;;;5032204;28;20493;-74
2021/01/29 05:21:15;;;;;;;4.23;1.70;;;8.00;99.90;;;;;;5031056;28;20493;-70
2021/01/29 05:24:23;;;;;;;2.50;1.80;;;8.00;99.90;;;;;;5032459;28;20629;-69
2021/01/29 05:26:59;;;;;;;;;;;8.00;99.90;;;;;;5032322;28;20019;-70
2021/01/29 05:29:31;;;;;;;;;;;7.90;99.90;;;;;;5032796;28;19921;-72
2021/01/29 05:32:10;;;;;;;;;;;7.90;99.90;;;;;;5031494;28;20049;-70
2021/01/29 05:34:41;;;;;;;;;;;7.70;99.90;;;;;;5030779;28;19955;-76
2021/01/29 05:37:38;;;;;;;;;;;7.70;99.90;;;;;;5032108;28;19921;-70
2021/01/29 05:40:11;;;;;;;;;;;7.80;99.90;;;;;;5031169;28;19928;-75
2021/01/29 05:42:53;;;;;;;3.00;2.30;;;7.80;99.90;;;;;;5032130;28;20422;-70
2021/01/29 05:45:35;;;;;;;3.60;2.47;;;7.80;99.90;;;;;;5031793;28;20774;-70
2021/01/29 05:48:42;;;;;;;4.40;4.10;;;7.90;99.90;;;;;;5031295;28;20489;-70
2021/01/29 05:51:32;;;;;;;3.57;2.80;;;7.90;99.90;;;;;;5032946;28;20447;-73
2021/01/29 05:54:29;;;;;;;3.43;2.23;;;7.90;99.90;;;;;;5032243;28;20526;-71
2021/01/29 05:57:39;;;;;;;2.97;2.63;;;7.80;99.90;;;;;;5032389;28;20438;-74
2021/01/29 06:00:27;;;;;;;3.50;2.40;;;7.90;99.90;;;;;;5031421;28;20988;-70
2021/01/29 06:03:10;;;;;;;3.63;3.00;;;7.90;99.90;;;;;;5031895;28;20585;-75
2021/01/29 06:06:22;;;;;;;3.70;3.20;;;7.80;99.90;;;;;;5031413;28;20450;-71
2021/01/29 06:09:17;;;;;;;5.03;3.80;;;7.80;99.90;;;;;;4990402;28;20493;-73
2021/01/29 06:11:51;;;;;;;3.77;3.37;;;7.80;99.90;;;;;;5035571;28;20805;-72
2021/01/29 06:14:40;;;;;;;3.67;2.90;;;7.70;99.90;;;;;;5036166;28;20435;-69
2021/01/29 06:17:39;;;;;;;8.53;2.90;;;7.80;99.90;;;;;;5034295;28;20543;-71
2021/01/29 06:20:24;;;;;;;3.30;2.77;;;7.80;99.90;;;;;;5035422;28;20521;-70
2021/01/29 06:23:15;;;;;;;4.50;3.03;;;7.70;99.90;;;;;;5033895;28;20823;-70
2021/01/29 06:26:29;;;;;;;2.53;2.33;;;7.70;99.90;;;;;;5034817;28;20469;-70
2021/01/29 06:29:28;;;;;;;3.70;2.70;;;7.80;99.90;;;;;;5018194;28;20583;-69
2021/01/29 06:32:29;;;;;;;2.93;2.47;;;7.80;99.90;;;;;;5015896;28;20900;-69
2021/01/29 06:35:33;;;;;;;3.10;2.27;;;7.90;99.90;;;;;;5033201;28;20485;-68
2021/01/29 06:38:24;;;;;;;3.23;2.50;;;7.90;99.90;;;;;;5032777;28;20457;-69
2021/01/29 06:41:10;;;;;;;3.50;2.83;;;7.90;99.90;;;;;;5033121;28;20779;-70
2021/01/29 06:43:47;;;;;;;6.60;2.90;;;7.90;99.90;;;;;;5033749;28;20493;-69
2021/01/29 06:46:40;;;;;;;3.73;3.13;;;7.80;99.90;;;;;;5033685;28;20474;-69
2021/01/29 06:49:29;;;;;;;4.93;2.80;;;7.90;99.90;;;;;;5034946;28;20930;-70
2021/01/29 06:52:46;;;;;;;4.20;3.23;;;7.80;99.90;;;;;;5033232;28;20523;-69
2021/01/29 06:55:54;;;;;;;3.00;2.70;;;7.80;99.90;;;;;;5035563;28;20462;-70
2021/01/29 06:58:59;;;;;;;3.00;2.80;;;7.80;99.90;;;;;;4995873;28;20436;-69
2021/01/29 07:01:50;;;;;;;2.60;2.40;;;7.90;99.90;;;;;;5027161;28;20607;-69
2021/01/29 07:04:53;;;;;;;3.13;2.60;;;7.80;99.90;;;;;;5026340;28;21473;-70
2021/01/29 07:07:32;;;;;;;3.60;2.10;;;7.80;99.90;;;;;;5026043;28;20486;-70
2021/01/29 07:10:23;;;;;;;3.50;2.30;;;7.80;99.90;;;;;;5025972;28;21016;-69
2021/01/29 07:13:11;;;;;;;2.93;2.00;;;7.90;99.90;;;;;;5025808;28;20840;-69
2021/01/29 07:15:53;;;;;;;2.83;1.73;;;7.90;99.90;;;;;;5024191;28;20806;-69
2021/01/29 07:18:49;;;;;;;3.43;2.30;;;7.90;99.90;;;;;;5024823;28;20480;-69
2021/01/29 07:21:48;;;;;;;2.90;2.57;;;8.00;99.90;;;;;;5025852;28;20463;-69
2021/01/29 07:24:33;;;;;;;3.90;2.63;;;7.90;99.90;;;;;;5020985;28;20467;-70
2021/01/29 07:27:09;;;;;;;3.57;2.70;;;7.90;99.90;;;;;;5025311;28;20538;-69
2021/01/29 07:30:04;;;;;;;3.73;2.17;;;8.00;99.90;;;;;;5026001;28;20926;-68
2021/01/29 07:32:43;;;;;;;2.37;2.00;;;8.00;99.90;;;;;;4983794;28;20498;-69
2021/01/29 07:35:20;;;;;;;3.30;3.10;;;7.90;99.90;;;;;;5000262;28;20494;-69
2021/01/29 07:38:07;;;;;;;3.83;1.70;;;7.90;99.90;;;;;;4984062;28;20474;-70
2021/01/29 07:41:03;;;;;;;1.77;1.67;;;7.90;99.90;;;;;;4983603;28;20479;-70
2021/01/29 07:43:46;;;;;;;2.00;1.80;;;7.90;99.90;;;;;;4983681;28;20591;-69
2021/01/29 07:46:29;;;;;;;2.70;1.80;;;7.90;99.90;;;;;;4993726;28;20613;-69
2021/01/29 07:49:17;;;;;;;3.00;1.97;;;8.00;99.90;;;;;;5003306;28;20475;-69
2021/01/29 07:51:52;;;;;;;1.50;1.40;;;8.00;99.90;;;;;;5005081;28;20997;-69
2021/01/29 07:54:58;;;;;;;1.60;1.50;;;8.00;99.90;;;;;;5004912;28;20865;-69
2021/01/29 07:57:40;;;;;;;1.10;1.00;;;8.00;99.90;;;;;;4946812;28;20458;-69
2021/01/29 08:00:21;;;;;;;1.43;1.33;;;8.00;99.90;;;;;;5004863;28;20481;-70
2021/01/29 08:03:29;;;;;;;1.70;1.27;;;8.00;99.90;;;;;;5033146;28;20525;-69
2021/01/29 08:06:02;;;;;;;2.70;1.20;;;8.00;99.90;;;;;;4988096;28;20461;-69
2021/01/29 08:08:34;;;;;;;1.50;1.10;;;8.10;99.90;;;;;;5033500;28;20466;-69
2021/01/29 08:11:06;;;;;;;2.70;1.20;;;8.00;99.90;;;;;;5015293;28;20446;-69
2021/01/29 08:14:00;;;;;;;1.07;0.93;;;8.10;99.90;;;;;;5033393;28;20452;-69
2021/01/29 08:16:54;;;;;;;1.93;1.50;;;8.10;99.90;;;;;;4998202;28;20497;-70
2021/01/29 08:19:30;;;;;;;1.30;1.20;;;8.10;99.90;;;;;;5015728;28;20545;-69
2021/01/29 08:22:18;;;;;;;1.77;1.27;;;8.00;99.90;;;;;;5031635;28;20422;-69
2021/01/29 08:25:10;;;;;;;1.40;1.30;;;8.10;99.90;;;;;;5033041;28;20427;-69
2021/01/29 08:28:10;;;;;;;2.03;1.60;;;8.20;99.90;;;;;;5014972;28;20479;-69
2021/01/29 08:31:20;;;;;;;2.80;1.33;;;8.20;99.90;;;;;;5031732;28;20450;-69
2021/01/29 08:34:36;;;;;;;1.20;0.90;;;8.20;99.90;;;;;;5031990;28;20455;-69
2021/01/29 08:37:17;;;;;;;1.10;0.70;;;8.30;99.90;;;;;;5030895;28;20467;-68
2021/01/29 08:39:51;;;;;;;2.30;1.10;;;8.40;99.90;;;;;;5032370;28;20435;-69
2021/01/29 08:42:29;;;;;;;0.93;0.70;;;8.50;99.90;;;;;;5032326;28;20432;-72
2021/01/29 08:45:16;;;;;;;1.17;0.77;;;8.60;99.90;;;;;;5031721;28;20605;-68
2021/01/29 08:47:58;;;;;;;0.90;0.70;;;8.80;99.90;;;;;;4992246;28;20483;-69
2021/01/29 08:50:53;;;;;;;0.63;0.63;;;8.80;99.90;;;;;;4991614;28;20960;-74
2021/01/29 08:54:08;;;;;;;0.60;0.60;;;8.90;99.90;;;;;;4992757;28;20437;-69
2021/01/29 08:57:07;;;;;;;1.00;0.97;;;8.90;99.90;;;;;;4992729;28;20546;-69
2021/01/29 08:59:39;;;;;;;0.90;0.60;;;8.90;99.90;;;;;;4993343;28;20453;-69
2021/01/29 09:02:21;;;;;;;1.00;0.63;;;9.00;99.90;;;;;;5027572;28;20966;-69
2021/01/29 09:04:56;;;;;;;0.90;0.80;;;9.00;99.90;;;;;;5031546;28;20435;-68
2021/01/29 09:07:27;;;;;;;0.93;0.80;;;9.00;99.90;;;;;;5031487;28;20462;-68
2021/01/29 09:10:08;;;;;;;1.00;0.63;;;9.00;99.90;;;;;;5031553;28;20493;-69
2021/01/29 09:12:37;;;;;;;1.60;1.30;;;9.00;99.90;;;;;;5031815;28;20481;-69
2021/01/29 09:15:17;;;;;;;1.20;0.87;;;9.00;99.90;;;;;;5013837;28;20535;-69
2021/01/29 09:17:49;;;;;;;1.10;0.70;;;9.00;99.90;;;;;;5031145;28;20473;-69
2021/01/29 09:20:25;;;;;;;1.10;0.70;;;8.90;99.90;;;;;;5013965;28;20435;-71
2021/01/29 09:23:03;;;;;;;3.33;0.90;;;9.00;99.90;;;;;;5030575;28;20427;-69
2021/01/29 09:25:42;;;;;;;1.40;0.90;;;9.00;99.90;;;;;;5031703;28;20522;-69
2021/01/29 09:28:13;;;;;;;1.00;0.93;;;9.00;99.90;;;;;;5013793;28;20436;-69
2021/01/29 09:30:55;;;;;;;2.23;1.60;;;9.10;99.90;;;;;;5031751;28;20446;-69
2021/01/29 09:33:27;;;;;;;1.83;0.70;;;9.10;99.90;;;;;;5030473;28;20455;-68
2021/01/29 09:35:58;;;;;;;0.63;0.63;;;9.10;99.90;;;;;;5032462;28;20463;-69
2021/01/29 09:38:28;;;;;;;2.73;0.73;;;9.10;99.90;;;;;;5031926;28;20774;-74
2021/01/29 09:41:03;;;;;;;1.40;0.63;;;9.00;99.90;;;;;;5031960;28;20442;-68
2021/01/29 09:43:46;;;;;;;1.47;0.70;;;9.00;99.90;;;;;;5014192;28;20442;-69
2021/01/29 09:46:22;;;;;;;0.83;0.60;;;9.00;99.90;;;;;;5033925;28;20470;-69
2021/01/29 09:49:00;;;;;;;3.03;0.87;;;9.00;99.90;;;;;;5017511;28;20446;-70
2021/01/29 09:52:12;;;;;;;0.73;0.50;;;9.10;99.90;;;;;;5035234;28;20925;-69
2021/01/29 09:54:48;;;;;;;0.60;0.60;;;9.30;99.90;;;;;;5035273;28;20537;-69
2021/01/29 09:57:22;;;;;;;1.13;0.80;;;9.30;99.90;;;;;;5017195;28;20466;-70
2021/01/29 10:00:17;;;;;;;0.90;0.80;;;9.40;99.90;;;;;;5035202;28;20566;-68
2021/01/29 10:03:00;;;;;;;1.00;0.80;;;9.50;99.90;;;;;;5015895;28;20573;-69
2021/01/29 10:05:33;;;;;;;0.70;0.50;;;9.50;99.90;;;;;;5035510;28;20792;-69
2021/01/29 10:08:08;;;;;;;1.40;0.90;;;9.50;99.90;;;;;;5035566;28;20439;-72
2021/01/29 10:10:45;;;;;;;1.00;0.83;;;9.40;99.90;;;;;;5035725;28;20441;-69
2021/01/29 10:13:25;;;;;;;0.97;0.83;;;9.50;99.90;;;;;;5017770;28;20775;-68
2021/01/29 10:16:17;;;;;;;1.20;0.90;;;9.50;99.90;;;;;;5032527;28;20478;-69
2021/01/29 10:18:56;;;;;;;1.17;1.07;;;9.60;99.90;;;;;;5035405;28;20432;-69
2021/01/29 10:21:42;;;;;;;1.17;1.07;;;9.50;99.90;;;;;;5035933;28;20431;-70
2021/01/29 10:24:17;;;;;;;1.17;1.07;;;9.60;99.90;;;;;;5036103;28;20459;-69
2021/01/29 10:26:50;;;;;;;0.80;0.70;;;9.50;99.90;;;;;;5018085;28;20442;-68
2021/01/29 10:29:22;;;;;;;0.90;0.90;;;9.50;99.90;;;;;;5017411;28;20665;-68
2021/01/29 10:31:55;;;;;;;1.00;0.90;;;9.50;99.90;;;;;;5034087;28;20467;-71
2021/01/29 10:34:29;;;;;;;0.77;0.77;;;9.40;99.90;;;;;;5035289;28;20498;-68
2021/01/29 10:37:03;;;;;;;2.57;1.20;;;9.40;99.90;;;;;;5034783;28;20469;-68
2021/01/29 10:39:50;;;;;;;0.80;0.80;;;9.30;99.90;;;;;;5035269;28;20948;-69
2021/01/29 10:42:23;;;;;;;0.90;0.70;;;9.30;99.90;;;;;;5032366;28;20521;-68
2021/01/29 10:44:52;;;;;;;0.77;0.77;;;9.30;99.90;;;;;;5035238;28;20439;-70
2021/01/29 10:47:26;;;;;;;2.33;1.20;;;9.30;99.90;;;;;;5032896;28;20554;-68
2021/01/29 10:49:58;;;;;;;1.20;1.00;;;9.30;99.90;;;;;;5033771;28;20514;-71
2021/01/29 10:52:40;;;;;;;0.90;0.90;;;9.30;99.90;;;;;;5034789;28;20439;-68
2021/01/29 10:55:19;;;;;;;1.00;0.80;;;9.30;99.90;;;;;;5032706;28;20435;-68
2021/01/29 10:57:56;;;;;;;0.90;0.77;;;9.40;99.90;;;;;;5016245;28;20473;-68
2021/01/29 11:00:27;;;;;;;1.23;0.67;;;9.40;99.90;;;;;;5033505;28;20475;-69
2021/01/29 11:03:04;;;;;;;1.00;0.90;;;9.40;99.90;;;;;;5033797;28;20479;-68
2021/01/29 11:05:35;;;;;;;1.17;0.80;;;9.40;99.90;;;;;;5016880;28;20442;-68
2021/01/29 11:08:12;;;;;;;1.37;1.07;;;9.40;99.90;;;;;;5033903;28;20427;-68
2021/01/29 11:10:42;;;;;;;0.80;0.80;;;9.40;99.90;;;;;;5034346;28;20612;-69
2021/01/29 11:13:16;;;;;;;1.27;0.83;;;9.40;99.90;;;;;;5016060;28;20895;-68
2021/01/29 11:15:50;;;;;;;0.60;0.60;;;9.40;99.90;;;;;;5033626;28;20935;-69
2021/01/29 11:18:25;;;;;;;1.17;0.70;;;9.30;99.90;;;;;;5032643;28;20478;-69
2021/01/29 11:21:26;;;;;;;1.10;1.00;;;9.30;99.90;;;;;;5033749;28;20498;-68
2021/01/29 11:24:02;;;;;;;1.03;0.80;;;9.30;99.90;;;;;;5015425;28;20534;-69
2021/01/29 11:26:59;;;;;;;1.20;0.80;;;9.40;99.90;;;;;;5016052;28;20451;-69
2021/01/29 11:29:40;;;;;;;1.17;0.90;;;9.40;99.90;;;;;;5033959;28;20985;-69
2021/01/29 11:32:30;;;;;;;0.80;0.80;;;9.30;99.90;;;;;;5032979;28;20467;-68
2021/01/29 11:35:05;;;;;;;2.37;1.07;;;9.30;99.90;;;;;;5033712;28;20877;-69
2021/01/29 11:37:38;;;;;;;1.73;1.63;;;9.40;99.90;;;;;;5033671;28;20557;-68
2021/01/29 11:40:15;;;;;;;16.03;1.23;;;9.40;99.90;;;;;;5033578;28;20455;-69
2021/01/29 11:42:55;;;;;;;1.20;0.97;;;9.50;99.90;;;;;;5015772;28;20427;-68
2021/01/29 11:45:27;;;;;;;2.57;1.10;;;9.50;99.90;;;;;;5032623;28;20440;-69
2021/01/29 11:48:31;;;;;;;2.50;0.77;;;9.60;99.90;;;;;;5032711;28;20952;-69
2021/01/29 11:51:06;;;;;;;2.90;1.27;;;9.70;99.90;;;;;;5033668;28;20530;-68
2021/01/29 11:53:40;;;;;;;3.33;0.90;;;9.70;99.90;;;;;;5033843;28;20565;-68
2021/01/29 11:56:19;;;;;;;1.53;1.43;;;9.80;99.90;;;;;;5033854;28;20492;-68
2021/01/29 11:58:55;;;;;;;1.30;1.00;;;9.90;99.90;;;;;;5015859;28;20531;-68
2021/01/29 12:01:29;;;;;;;1.03;0.60;;;10.00;99.90;;;;;;5009047;28;20542;-68
2021/01/29 12:04:08;;;;;;;3.80;2.20;;;10.10;99.90;;;;;;5010992;28;20468;-67
2021/01/29 12:06:39;;;;;;;2.70;1.17;;;10.20;99.90;;;;;;5012272;28;20436;-67
2021/01/29 12:09:12;;;;;;;2.80;1.47;;;10.30;99.90;;;;;;5013937;28;20522;-68
2021/01/29 12:11:48;;;;;;;6.57;1.73;;;10.40;99.90;;;;;;4995824;28;20424;-67
2021/01/29 12:14:27;;;;;;;1.87;1.03;;;10.50;99.90;;;;;;5012467;28;20465;-69
2021/01/29 12:16:58;;;;;;;3.40;1.37;;;10.50;99.90;;;;;;5011045;28;20518;-68
2021/01/29 12:19:32;;;;;;;4.57;1.57;;;10.60;99.90;;;;;;4995240;28;20512;-68
2021/01/29 12:22:18;;;;;;;4.37;1.80;;;10.60;99.90;;;;;;5013414;28;20443;-68
2021/01/29 12:24:57;;;;;;;2.20;0.97;;;10.50;99.90;;;;;;5013245;28;20436;-68
2021/01/29 12:27:29;;;;;;;3.43;1.33;;;10.50;99.90;;;;;;5013511;28;20963;-69
2021/01/29 12:30:02;;;;;;;2.20;1.53;;;10.50;99.90;;;;;;5011993;28;20464;-67
2021/01/29 12:32:47;;;;;;;3.50;2.63;;;10.50;99.90;;;;;;5031693;28;20929;-68
2021/01/29 12:35:22;;;;;;;2.97;1.33;;;10.40;99.90;;;;;;5033167;28;20425;-69
2021/01/29 12:38:07;;;;;;;3.33;1.20;;;10.30;99.90;;;;;;4998212;28;20468;-68
2021/01/29 12:40:38;;;;;;;3.50;0.80;;;10.20;99.90;;;;;;5014590;28;20432;-70
2021/01/29 12:43:13;;;;;;;4.63;1.30;;;10.20;99.90;;;;;;5031314;28;20439;-68
2021/01/29 12:45:49;;;;;;;1.73;1.20;;;10.20;99.90;;;;;;5031758;28;20458;-69
2021/01/29 12:48:34;;;;;;;4.70;3.10;;;10.30;99.90;;;;;;5014015;28;20955;-68
2021/01/29 12:51:07;;;;;;;2.80;2.03;;;10.30;99.90;;;;;;5032385;28;20466;-68
2021/01/29 12:53:48;;;;;;;1.80;1.50;;;10.30;99.90;;;;;;5032334;28;20437;-67
2021/01/29 12:56:46;;;;;;;4.90;1.30;;;10.40;99.90;;;;;;5032185;28;20479;-67
2021/01/29 12:59:27;;;;;;;1.70;1.10;;;10.50;99.90;;;;;;5032442;28;20548;-68
2021/01/29 13:02:07;;;;;;;2.20;1.07;;;10.70;99.90;;;;;;5009912;28;20478;-68
2021/01/29 13:04:42;;;;;;;4.67;1.50;;;11.00;99.90;;;;;;5012028;28;20431;-68
2021/01/29 13:07:15;;;;;;;2.13;0.93;;;11.00;99.90;;;;;;5012305;28;20451;-68
2021/01/29 13:10:03;;;;;;;1.70;1.10;;;11.00;99.90;;;;;;5012663;28;20448;-67
2021/01/29 13:12:46;;;;;;;2.63;1.10;;;10.80;99.90;;;;;;5011726;28;20455;-68
2021/01/29 13:15:23;;;;;;;2.87;1.47;;;10.70;99.90;;;;;;4995557;28;20945;-70
2021/01/29 13:18:02;;;;;;;7.60;2.50;;;10.50;99.90;;;;;;5014267;28;20504;-69
2021/01/29 13:20:32;;;;;;;3.00;1.70;;;10.40;99.90;;;;;;5035146;28;20630;-70
2021/01/29 13:23:17;;;;;;;2.40;0.90;;;10.40;99.90;;;;;;5038796;28;20490;-69
2021/01/29 13:25:58;;;;;;;2.60;1.20;;;10.50;99.90;;;;;;5021160;28;20441;-69
2021/01/29 13:28:28;;;;;;;1.63;1.00;;;10.60;99.90;;;;;;5038342;28;20550;-69
2021/01/29 13:31:11;;;;;;;1.20;0.83;;;10.70;99.90;;;;;;5017020;28;20770;-69
2021/01/29 13:33:48;;;;;;;3.77;1.07;;;10.60;99.90;;;;;;5019452;28;20445;-69
2021/01/29 13:36:24;;;;;;;4.00;1.37;;;10.70;99.90;;;;;;5018796;28;20801;-68
2021/01/29 13:38:52;;;;;;;5.00;1.47;;;10.80;99.90;;;;;;5019485;28;20497;-69
2021/01/29 13:41:23;;;;;;;1.70;0.87;;;10.80;99.90;;;;;;5034041;28;20450;-68
2021/01/29 13:43:51;;;;;;;1.83;0.90;;;10.90;99.90;;;;;;5018626;28;20546;-70
2021/01/29 13:46:28;;;;;;;4.50;1.47;;;11.00;99.90;;;;;;5027549;28;20464;-68
2021/01/29 13:49:15;;;;;;;1.20;1.07;;;10.80;99.90;;;;;;5037027;28;20424;-68
2021/01/29 13:51:42;;;;;;;3.00;1.07;;;10.80;99.90;;;;;;5020801;28;20443;-68
2021/01/29 13:54:12;;;;;;;3.67;1.37;;;10.80;99.90;;;;;;5038540;28;20845;-68
2021/01/29 13:56:45;;;;;;;3.60;1.80;;;10.80;99.90;;;;;;5020284;28;20983;-70
2021/01/29 13:59:24;;;;;;;2.17;1.30;;;10.80;99.90;;;;;;5036511;28;20552;-68
2021/01/29 14:01:57;;;;;;;1.63;1.30;;;11.00;99.90;;;;;;5018544;28;21001;-69
2021/01/29 14:04:32;;;;;;;4.30;1.83;;;11.20;99.90;;;;;;5038285;28;20799;-69
2021/01/29 14:07:00;;;;;;;9.23;2.60;;;11.20;99.90;;;;;;5037333;28;20300;-66
2021/01/29 14:09:28;;;;;;;1.70;1.20;;;11.10;99.90;;;;;;5036003;28;20455;-66
2021/01/29 14:12:10;;;;;;;3.63;1.30;;;11.10;99.90;;;;;;5037940;28;20464;-65
2021/01/29 14:17:52;;;;;;;4.30;1.60;;;11.10;99.90;;;;;;5036052;28;20551;-65
2021/01/29 14:20:28;;;;;;;3.13;1.30;;;11.10;99.90;;;;;;5037427;28;20441;-65
2021/01/29 14:23:10;;;;;;;3.73;1.03;;;11.10;99.90;;;;;;5037538;28;20438;-65
2021/01/29 14:25:44;;;;;;;2.90;1.10;;;11.00;99.90;;;;;;5037754;28;20467;-66
2021/01/29 14:28:29;;;;;;;1.60;1.10;;;11.00;99.90;;;;;;5036918;28;20430;-66